FEFF

Bangui M'Poko International Airport

Bangui, Central African Republic
METAR FEFF 170400Z 00000KT 9999 SCT007 23/22 Q1011 NOSIG
Observed Flight Rules
Oct-17 @ 04:00 UTC (an hour ago) Visual Flight Rules
Visibility Clouds
10,000+ meters
  • Scattered at 700' AGL
Temperatures Readings
Current 23°C / 73°F
Dewpoint 22°C / 72°F
Humidity 94%
Altimeter 29.85" Hg
Pressure 1011 hPa
Elevation 366
METAR FEFF 170400Z 00000KT 9999 SCT007 23/22 Q1011 NOSIG
Observed Flight Rules
Oct-17 @ 04:00 UTC
(an hour ago)
VFR
Clouds
  • Scattered at 700' AGL
Temperature Dewpoint
23°C / 73°F 22°C / 72°F
Humidity Altimeter Pressure
94% 29.85" Hg 1011 hPa